createdAt,value
2022-10-14T00:00:08.121Z,14.38
2022-10-14T00:05:08.008Z,16.02
2022-10-14T00:10:07.726Z,15.60
2022-10-14T00:15:08.407Z,15.80
2022-10-14T00:20:08.094Z,15.77
2022-10-14T00:25:07.878Z,16.45
2022-10-14T00:30:08.571Z,16.67
2022-10-14T00:35:08.307Z,18.27
2022-10-14T00:40:08.023Z,15.95
2022-10-14T00:45:07.703Z,15.48
2022-10-14T00:50:08.377Z,16.17
2022-10-14T00:55:13.707Z,19.13
2022-10-14T01:00:11.973Z,16.95
2022-10-14T01:05:07.672Z,16.90
2022-10-14T01:10:17.017Z,16.70
2022-10-14T01:15:07.773Z,17.67
2022-10-14T01:20:08.564Z,18.35
2022-10-14T01:25:08.285Z,15.48
2022-10-14T01:30:08.010Z,15.55
2022-10-14T01:35:12.861Z,14.98
2022-10-14T01:40:08.577Z,17.02
2022-10-14T01:45:08.291Z,17.40
2022-10-14T01:50:08.007Z,15.25
2022-10-14T01:55:07.701Z,14.50
2022-10-14T02:00:08.419Z,15.93
2022-10-14T02:05:08.118Z,16.55
2022-10-14T02:10:07.843Z,16.95
2022-10-14T02:15:08.558Z,15.68
2022-10-14T02:20:08.233Z,16.17
2022-10-14T02:25:07.957Z,18.23
2022-10-14T02:30:07.672Z,16.75
2022-10-14T02:35:08.413Z,17.33
2022-10-14T02:40:08.143Z,16.27
2022-10-14T02:45:07.833Z,15.07
2022-10-14T02:50:08.545Z,16.63
2022-10-14T02:55:08.267Z,14.80
2022-10-14T03:00:07.967Z,13.93
2022-10-14T03:05:07.662Z,13.52
2022-10-14T03:10:08.359Z,14.70
2022-10-14T03:15:08.073Z,13.63
2022-10-14T03:20:07.791Z,13.45
2022-10-14T03:25:08.488Z,14.95
2022-10-14T03:30:08.190Z,14.43
2022-10-14T03:35:07.882Z,14.27
2022-10-14T03:40:08.574Z,13.15
2022-10-14T03:45:08.264Z,13.20
2022-10-14T03:50:07.995Z,12.40
2022-10-14T03:55:07.689Z,12.10
2022-10-14T04:00:08.423Z,11.60
2022-10-14T04:05:02.225Z,11.60
2022-10-14T04:10:02.064Z,11.27
2022-10-14T04:15:01.822Z,11.10
2022-10-14T04:20:02.675Z,11.77
2022-10-14T04:25:02.456Z,11.00
2022-10-14T04:30:02.226Z,12.15
2022-10-14T04:35:02.145Z,11.02
2022-10-14T04:40:01.965Z,10.65
2022-10-14T04:45:01.806Z,11.15
2022-10-14T04:50:02.658Z,10.70
2022-10-14T04:55:02.597Z,10.40
2022-10-14T05:00:02.517Z,10.70
2022-10-14T05:05:02.422Z,11.15
2022-10-14T05:10:02.383Z,10.63
2022-10-14T05:15:02.283Z,13.45
2022-10-14T05:20:02.240Z,13.48
2022-10-14T05:25:02.161Z,11.85
2022-10-14T05:30:02.097Z,12.07
2022-10-14T05:35:01.884Z,13.30
2022-10-14T05:40:02.866Z,13.27
2022-10-14T05:45:02.701Z,12.85
2022-10-14T05:50:02.515Z,11.85
2022-10-14T05:55:02.347Z,16.45
2022-10-14T06:00:02.195Z,14.00
2022-10-14T06:05:02.011Z,13.90
2022-10-14T06:10:02.061Z,17.02
2022-10-14T06:15:01.887Z,16.77
2022-10-14T06:20:02.740Z,14.27
2022-10-14T06:25:04.504Z,14.48
2022-10-14T06:30:02.501Z,12.75
2022-10-14T06:35:02.307Z,14.07
2022-10-14T06:40:02.237Z,14.23
2022-10-14T06:45:01.974Z,11.75
2022-10-14T06:50:01.799Z,10.52
2022-10-14T06:55:02.744Z,12.02
2022-10-14T07:00:02.607Z,12.27
2022-10-14T07:05:02.416Z,10.65
2022-10-14T07:10:02.232Z,11.15
2022-10-14T07:15:02.077Z,10.82
2022-10-14T07:20:01.935Z,11.13
2022-10-14T07:25:02.756Z,8.18
2022-10-14T07:30:02.608Z,9.00
2022-10-14T07:35:02.400Z,7.88
2022-10-14T07:40:02.241Z,8.45
2022-10-14T07:45:02.161Z,8.57
2022-10-14T07:50:02.125Z,7.43
2022-10-14T07:55:02.136Z,8.73
2022-10-14T08:00:02.043Z,8.10
2022-10-14T08:05:25.529Z,8.40
2022-10-14T08:10:02.155Z,7.55
2022-10-14T08:15:01.963Z,8.50
2022-10-14T08:20:01.776Z,8.30
2022-10-14T08:25:02.548Z,7.18
2022-10-14T08:30:04.980Z,7.40
2022-10-14T08:35:02.625Z,7.13
2022-10-14T08:40:02.472Z,7.07
2022-10-14T08:45:02.270Z,6.35
2022-10-14T08:50:02.110Z,5.93
2022-10-14T08:55:01.966Z,5.80
2022-10-14T09:00:01.771Z,5.75
2022-10-14T09:05:02.607Z,4.95
2022-10-14T09:10:02.436Z,4.68
2022-10-14T09:15:02.277Z,5.32
2022-10-14T09:20:02.094Z,5.03
2022-10-14T09:25:01.881Z,4.78
2022-10-14T09:30:02.760Z,5.47
2022-10-14T09:35:02.697Z,4.97
2022-10-14T09:40:02.558Z,4.97
2022-10-14T09:45:02.434Z,4.45
2022-10-14T09:50:02.271Z,3.85
2022-10-14T09:55:02.197Z,4.20
2022-10-14T10:00:02.041Z,4.00
2022-10-14T10:05:01.901Z,3.53
2022-10-14T10:10:02.821Z,4.10
2022-10-14T10:15:02.629Z,3.65
2022-10-14T10:20:02.531Z,4.65
2022-10-14T10:25:02.403Z,4.95
2022-10-14T10:30:02.227Z,4.40
2022-10-14T10:35:02.301Z,4.93
2022-10-14T10:40:02.225Z,6.22
2022-10-14T10:45:02.474Z,5.38
2022-10-14T10:50:02.402Z,6.95
2022-10-14T10:55:02.296Z,4.50
2022-10-14T11:00:02.168Z,5.00
2022-10-14T11:05:02.818Z,5.80
2022-10-14T11:10:02.614Z,6.18
2022-10-14T11:15:02.421Z,4.80
2022-10-14T11:20:02.282Z,7.00
2022-10-14T11:25:02.177Z,6.78
2022-10-14T11:30:02.022Z,6.18
2022-10-14T11:35:01.838Z,6.03
2022-10-14T11:40:02.575Z,4.65
2022-10-14T11:45:02.374Z,4.07
2022-10-14T11:50:02.167Z,3.33
2022-10-14T11:55:02.012Z,3.20
2022-10-14T12:00:01.810Z,3.58
2022-10-14T12:05:02.705Z,3.38
2022-10-14T12:10:02.810Z,3.50
2022-10-14T12:15:12.607Z,0
2022-10-14T12:20:02.447Z,3.78
2022-10-14T12:25:02.313Z,3.70
2022-10-14T12:30:02.226Z,3.35
2022-10-14T12:35:02.074Z,3.55
2022-10-14T12:40:01.861Z,3.60
2022-10-14T12:45:02.727Z,3.45
2022-10-14T12:50:02.544Z,3.20
2022-10-14T12:55:02.506Z,3.88
2022-10-14T13:00:02.406Z,3.80
2022-10-14T13:05:02.415Z,3.85
2022-10-14T13:10:02.385Z,4.10
2022-10-14T13:15:02.312Z,3.03
2022-10-14T13:20:02.226Z,3.90
2022-10-14T13:25:02.071Z,3.15
2022-10-14T13:30:02.026Z,2.80
2022-10-14T13:35:11.927Z,0
2022-10-14T13:40:02.775Z,3.38
2022-10-14T13:45:02.651Z,3.30
2022-10-14T13:50:02.431Z,2.70
2022-10-14T13:55:02.364Z,2.85
2022-10-14T14:00:38.995Z,2.70
2022-10-14T14:05:02.758Z,2.92
2022-10-14T14:10:02.710Z,2.50
2022-10-14T14:15:02.516Z,2.20
2022-10-14T14:20:02.413Z,2.50
2022-10-14T14:25:12.608Z,2.63
2022-10-14T14:30:02.619Z,2.55
2022-10-14T14:35:02.409Z,2.28
2022-10-14T14:40:02.254Z,2.80
2022-10-14T14:45:02.080Z,2.40
2022-10-14T14:50:25.546Z,2.70
2022-10-14T14:55:02.608Z,2.55
2022-10-14T15:00:02.476Z,2.90
2022-10-14T15:05:02.334Z,2.80
2022-10-14T15:10:02.152Z,2.78
2022-10-14T15:15:03.877Z,3.03
2022-10-14T15:20:02.793Z,3.10
2022-10-14T15:25:02.668Z,3.10
2022-10-14T15:30:02.499Z,3.40
2022-10-14T15:35:02.320Z,3.55
2022-10-14T15:40:02.174Z,2.80
2022-10-14T15:45:02.126Z,2.63
2022-10-14T15:50:02.133Z,3.22
2022-10-14T15:55:02.057Z,3.00
2022-10-14T16:00:02.283Z,3.20
2022-10-14T16:05:20.330Z,3.03
2022-10-14T16:10:02.805Z,3.10
2022-10-14T16:15:02.834Z,2.97
2022-10-14T16:20:02.826Z,3.70
2022-10-14T16:25:02.647Z,3.50
2022-10-14T16:30:02.640Z,2.75
2022-10-14T16:35:02.535Z,3.45
2022-10-14T16:40:02.487Z,2.85
2022-10-14T16:45:02.731Z,2.97
2022-10-14T16:50:02.555Z,3.25
2022-10-14T16:55:02.348Z,4.00
2022-10-14T17:00:02.305Z,3.80
2022-10-14T17:05:02.254Z,6.35
2022-10-14T17:10:02.163Z,4.85
2022-10-14T17:15:01.978Z,5.13
2022-10-14T17:20:01.841Z,5.60
2022-10-14T17:25:02.699Z,4.93
2022-10-14T17:30:02.466Z,5.88
2022-10-14T17:35:02.296Z,5.97
2022-10-14T17:40:02.197Z,5.93
2022-10-14T17:45:02.007Z,7.18
2022-10-14T17:50:01.942Z,6.80
2022-10-14T17:55:02.740Z,5.63
2022-10-14T18:00:05.276Z,6.60
2022-10-14T18:05:02.114Z,6.05
2022-10-14T18:10:01.941Z,0
2022-10-14T18:15:02.750Z,5.82
2022-10-14T18:20:04.534Z,5.82
2022-10-14T18:25:02.435Z,6.80
2022-10-14T18:30:02.428Z,6.88
2022-10-14T18:35:02.373Z,5.80
2022-10-14T18:40:02.316Z,6.72
2022-10-14T18:45:02.293Z,6.22
2022-10-14T18:55:02.157Z,6.47
2022-10-14T19:00:02.131Z,6.55
2022-10-14T19:05:02.028Z,6.38
2022-10-14T19:10:01.807Z,7.15
2022-10-14T19:15:02.523Z,7.00
2022-10-14T19:20:02.487Z,6.93
2022-10-14T19:25:02.312Z,6.93
2022-10-14T19:30:02.333Z,6.65
2022-10-14T19:35:02.177Z,6.78
2022-10-14T19:40:01.929Z,7.63
2022-10-14T19:45:02.768Z,7.20
2022-10-14T19:50:02.631Z,8.00
2022-10-14T19:55:02.646Z,7.30
2022-10-14T20:00:02.607Z,7.90
2022-10-14T20:05:02.471Z,7.40
2022-10-14T20:10:03.010Z,7.47
2022-10-14T20:15:02.046Z,7.55
2022-10-14T20:20:01.852Z,7.85
2022-10-14T20:25:02.606Z,8.73
2022-10-14T20:30:02.476Z,9.48
2022-10-14T20:35:15.356Z,8.07
2022-10-14T20:40:08.075Z,8.65
2022-10-14T20:45:07.809Z,7.40
2022-10-14T20:50:08.552Z,7.35
2022-10-14T20:55:08.283Z,7.72
2022-10-14T21:00:07.978Z,7.25
2022-10-14T21:05:07.699Z,6.93
2022-10-14T21:10:08.401Z,7.50
2022-10-14T21:15:08.143Z,7.47
2022-10-14T21:20:07.853Z,7.60
2022-10-14T21:25:08.572Z,6.65
2022-10-14T21:30:08.325Z,6.28
2022-10-14T21:35:08.223Z,5.50
2022-10-14T21:40:07.928Z,5.68
2022-10-14T21:45:08.647Z,5.40
2022-10-14T21:50:08.357Z,5.63
2022-10-14T21:55:08.071Z,4.47
2022-10-14T22:00:07.866Z,4.40
2022-10-14T22:05:08.596Z,4.60
2022-10-14T22:10:08.311Z,4.95
2022-10-14T22:15:08.014Z,5.28
2022-10-14T22:20:07.742Z,4.43
2022-10-14T22:25:08.422Z,4.90
2022-10-14T22:30:08.105Z,5.47
2022-10-14T22:35:07.818Z,5.15
2022-10-14T22:40:08.559Z,5.00
2022-10-14T22:45:08.248Z,5.20
2022-10-14T22:50:07.944Z,5.40
2022-10-14T22:55:08.651Z,5.20
2022-10-14T23:01:02.147Z,6.45
2022-10-14T23:05:07.856Z,6.35
2022-10-14T23:10:08.337Z,6.53
2022-10-14T23:15:08.052Z,5.85
2022-10-14T23:20:07.767Z,6.85
2022-10-14T23:25:08.482Z,6.75
2022-10-14T23:30:08.160Z,6.65
2022-10-14T23:35:07.892Z,5.80
2022-10-14T23:40:08.661Z,6.57
2022-10-14T23:45:08.404Z,7.07
2022-10-14T23:50:08.167Z,6.90
2022-10-14T23:55:07.848Z,6.53
